Terminal Aerodrome Forecast
Issued by NWS

Home | Current Version | Previous Version | Text Only | Print | Product List | Glossary On
Versions: 1 2 3 4 5 6 7 8 9 10 11 12 13 14
000
FTUS45 KRIW 302322
TAFLND
TAF
KLND 302322Z 3100/3124 VRB04KT P6SM VCSH SCT050 BKN100
     FM310100 01006KT P6SM SCT025 OVC040
     FM310300 36007KT P6SM -RA OVC024
     FM310600 34007KT 4SM -RA OVC014
     FM310900 35007KT 2SM RA OVC008
     FM311200 35010KT 3/4SM -SN OVC007
     FM312100 02018KT 1SM -SN OVC010=

USA.gov is the U.S. government's official web portal to all federal, state and local government web resources and services.